Time;durP1;ratioP1;P1;durP2;ratioP2;P2;SDS_P1;SDS_P2;PMS_P1;PMS_P2;Temp;Humidity;BMP_temperature;BMP_pressure;BME280_temperature;BME280_humidity;BME280_pressure;Samples;Min_cycle;Max_cycle;Signal;HPM_P1;HPM_P2
2023/08/20 00:00:22;;;;;;;13.25;2.15;;;;;;;;;;5072193;28;20024;-62
2023/08/20 00:02:51;;;;;;;19.25;2.75;;;;;;;;;;5061362;28;20016;-62
2023/08/20 00:05:19;;;;;;;21.00;5.38;;;;;;;;;;5046906;28;20024;-63
2023/08/20 00:07:45;;;;;;;13.15;2.53;;;;;;;;;;5047076;28;20036;-62
2023/08/20 00:10:12;;;;;;;16.10;3.55;;;;;;;;;;5046503;28;20025;-62
2023/08/20 00:12:39;;;;;;;14.77;3.95;;;;;;;;;;5046543;28;20028;-63
2023/08/20 00:15:06;;;;;;;27.27;3.65;;;;;;;;;;5050886;28;20029;-62
2023/08/20 00:17:38;;;;;;;8.70;2.75;;;;;;;;;;5062926;28;20036;-63
2023/08/20 00:20:12;;;;;;;8.50;2.83;;;;;;;;;;5071596;28;20048;-62
2023/08/20 00:22:40;;;;;;;27.23;4.28;;;;;;;;;;5071979;28;20082;-63
2023/08/20 00:25:07;;;;;;;7.43;2.45;;;;;;;;;;5071928;28;20036;-63
2023/08/20 00:27:34;;;;;;;5.37;1.77;;;;;;;;;;5066453;28;20024;-64
2023/08/20 00:30:01;;;;;;;6.07;2.20;;;;;;;;;;5066133;28;20113;-63
2023/08/20 00:32:28;;;;;;;5.57;2.20;;;;;;;;;;5066367;28;20453;-63
2023/08/20 00:34:55;;;;;;;4.43;2.30;;;;;;;;;;5050356;28;20029;-63
2023/08/20 00:37:21;;;;;;;15.63;2.40;;;;;;;;;;5050859;28;20032;-64
2023/08/20 00:39:48;;;;;;;13.07;3.33;;;;;;;;;;5051708;28;20442;-63
2023/08/20 00:42:15;;;;;;;17.00;3.20;;;;;;;;;;5061839;28;20028;-63
2023/08/20 00:44:44;;;;;;;5.60;2.13;;;;;;;;;;5070823;28;20032;-63
2023/08/20 00:47:11;;;;;;;13.13;3.43;;;;;;;;;;5070478;28;20488;-63
2023/08/20 00:49:38;;;;;;;14.70;3.77;;;;;;;;;;5066537;28;20539;-64
2023/08/20 00:52:05;;;;;;;12.97;3.27;;;;;;;;;;5065740;28;20101;-62
2023/08/20 00:54:32;;;;;;;31.93;3.63;;;;;;;;;;5064615;28;20033;-63
2023/08/20 00:57:00;;;;;;;8.03;3.00;;;;;;;;;;5068744;28;20040;-63
2023/08/20 00:59:28;;;;;;;17.67;2.77;;;;;;;;;;5073497;28;20051;-62
2023/08/20 01:01:54;;;;;;;7.13;2.63;;;;;;;;;;5074646;28;20020;-64
2023/08/20 01:04:21;;;;;;;9.67;3.57;;;;;;;;;;5074628;28;20021;-62
2023/08/20 01:06:59;;;;;;;5.17;2.73;;;;;;;;;;5074898;28;20020;-63
2023/08/20 01:09:38;;;;;;;26.17;3.37;;;;;;;;;;5075552;28;20027;-63
2023/08/20 01:12:07;;;;;;;19.97;4.30;;;;;;;;;;5069980;28;20024;-63
2023/08/20 01:14:34;;;;;;;37.53;4.10;;;;;;;;;;5069518;28;20063;-62
2023/08/20 01:17:00;;;;;;;18.97;3.20;;;;;;;;;;5069318;28;20025;-63
2023/08/20 01:19:27;;;;;;;13.07;2.37;;;;;;;;;;5069682;28;20039;-64
2023/08/20 01:22:12;;;;;;;12.80;3.00;;;;;;;;;;5074165;28;20029;-62
2023/08/20 01:24:45;;;;;;;15.55;3.50;;;;;;;;;;5075390;28;20548;-62
2023/08/20 01:27:12;;;;;;;10.83;3.53;;;;;;;;;;5074651;28;20474;-64
2023/08/20 01:29:40;;;;;;;10.93;3.00;;;;;;;;;;5074942;28;20107;-63
2023/08/20 01:32:08;;;;;;;7.87;3.20;;;;;;;;;;5075014;28;20046;-63
2023/08/20 01:34:35;;;;;;;23.40;3.40;;;;;;;;;;5069236;28;20050;-63
2023/08/20 01:37:02;;;;;;;19.33;2.63;;;;;;;;;;5069482;28;20045;-62
2023/08/20 01:39:28;;;;;;;29.53;3.87;;;;;;;;;;5068858;28;20032;-62
2023/08/20 01:41:55;;;;;;;5.87;2.73;;;;;;;;;;5069062;28;20024;-63
2023/08/20 01:44:22;;;;;;;15.40;3.93;;;;;;;;;;5073794;28;20635;-62
2023/08/20 01:46:49;;;;;;;7.03;2.77;;;;;;;;;;5074644;28;20028;-62
2023/08/20 01:49:16;;;;;;;7.03;2.63;;;;;;;;;;5074833;28;20013;-62
2023/08/20 01:51:42;;;;;;;10.73;3.30;;;;;;;;;;5074052;28;20093;-62
2023/08/20 01:54:09;;;;;;;40.40;2.77;;;;;;;;;;5074718;28;20046;-62
2023/08/20 01:56:36;;;;;;;21.17;4.53;;;;;;;;;;5069464;28;20052;-62
2023/08/20 01:59:03;;;;;;;21.47;3.20;;;;;;;;;;5069068;28;20021;-63
2023/08/20 02:01:30;;;;;;;8.47;2.63;;;;;;;;;;5068806;28;20013;-62
2023/08/20 02:03:56;;;;;;;24.10;3.13;;;;;;;;;;5068690;28;20036;-62
2023/08/20 02:06:23;;;;;;;12.63;3.60;;;;;;;;;;5073157;28;20049;-62
2023/08/20 02:08:50;;;;;;;26.20;3.50;;;;;;;;;;5073343;28;20070;-62
2023/08/20 02:11:17;;;;;;;15.67;3.70;;;;;;;;;;5074303;28;20035;-63
2023/08/20 02:13:44;;;;;;;14.40;3.00;;;;;;;;;;5074366;28;20440;-62
2023/08/20 02:16:10;;;;;;;18.07;3.03;;;;;;;;;;5073589;28;20028;-62
2023/08/20 02:18:37;;;;;;;9.70;3.00;;;;;;;;;;5069505;28;20025;-62
2023/08/20 02:21:04;;;;;;;19.97;3.70;;;;;;;;;;5068620;28;20020;-62
2023/08/20 02:23:31;;;;;;;5.90;2.53;;;;;;;;;;5068631;28;20107;-62
2023/08/20 02:25:58;;;;;;;9.03;3.07;;;;;;;;;;5068121;28;20483;-62
2023/08/20 02:28:29;;;;;;;8.90;2.47;;;;;;;;;;5071993;28;20355;-62
2023/08/20 02:30:57;;;;;;;9.13;3.07;;;;;;;;;;5072690;28;20115;-62
2023/08/20 02:33:24;;;;;;;13.63;2.17;;;;;;;;;;5073698;28;20031;-62
2023/08/20 02:35:51;;;;;;;36.83;3.87;;;;;;;;;;5073833;28;20033;-62
2023/08/20 02:38:17;;;;;;;7.80;2.80;;;;;;;;;;5072570;28;20032;-62
2023/08/20 02:40:44;;;;;;;13.13;3.90;;;;;;;;;;5068406;28;20032;-63
2023/08/20 02:43:11;;;;;;;7.53;2.90;;;;;;;;;;5067795;28;20719;-63
2023/08/20 02:45:42;;;;;;;16.70;3.70;;;;;;;;;;5068142;28;20021;-62
2023/08/20 02:48:09;;;;;;;14.67;3.17;;;;;;;;;;5067747;28;20021;-63
2023/08/20 02:50:36;;;;;;;14.43;2.83;;;;;;;;;;5071315;28;20028;-62
2023/08/20 02:53:03;;;;;;;8.97;2.43;;;;;;;;;;5073131;28;20029;-62
2023/08/20 02:55:31;;;;;;;13.47;3.63;;;;;;;;;;5073443;28;20039;-62
2023/08/20 02:57:57;;;;;;;12.43;3.13;;;;;;;;;;5073451;28;20020;-62
2023/08/20 03:00:24;;;;;;;11.53;2.73;;;;;;;;;;5073169;28;20353;-62
2023/08/20 03:02:51;;;;;;;15.10;3.47;;;;;;;;;;5068884;28;20078;-62
2023/08/20 03:05:18;;;;;;;12.27;3.53;;;;;;;;;;5067670;28;20103;-62
2023/08/20 03:07:45;;;;;;;17.27;3.53;;;;;;;;;;5067513;28;20028;-63
2023/08/20 03:10:12;;;;;;;17.20;3.67;;;;;;;;;;5067554;28;20551;-62
2023/08/20 03:12:38;;;;;;;9.80;3.13;;;;;;;;;;5070433;28;20035;-63
2023/08/20 03:15:05;;;;;;;15.30;3.80;;;;;;;;;;5072575;28;20074;-62
2023/08/20 03:17:32;;;;;;;6.40;2.53;;;;;;;;;;5072760;28;20026;-62
2023/08/20 03:20:00;;;;;;;13.97;3.87;;;;;;;;;;5072454;28;20441;-62
2023/08/20 03:22:27;;;;;;;11.70;2.30;;;;;;;;;;5073053;28;20479;-62
2023/08/20 03:24:54;;;;;;;26.33;3.13;;;;;;;;;;5069255;28;20078;-62
2023/08/20 03:27:21;;;;;;;14.80;3.43;;;;;;;;;;5067199;28;20067;-62
2023/08/20 03:29:48;;;;;;;13.93;4.27;;;;;;;;;;5066993;28;20029;-61
2023/08/20 03:32:15;;;;;;;12.27;3.63;;;;;;;;;;5067022;28;20471;-63
2023/08/20 03:34:42;;;;;;;9.40;3.00;;;;;;;;;;5069026;28;20025;-62
2023/08/20 03:37:08;;;;;;;19.80;3.27;;;;;;;;;;5072684;28;20028;-62
2023/08/20 03:39:35;;;;;;;7.10;2.40;;;;;;;;;;5072765;28;20074;-62
2023/08/20 03:42:02;;;;;;;9.23;2.97;;;;;;;;;;5072450;28;20044;-63
2023/08/20 03:44:29;;;;;;;8.10;2.10;;;;;;;;;;5072682;28;20028;-62
2023/08/20 03:46:56;;;;;;;15.97;3.00;;;;;;;;;;5069322;28;20486;-62
2023/08/20 03:49:23;;;;;;;11.80;3.17;;;;;;;;;;5067080;28;20027;-62
2023/08/20 03:51:50;;;;;;;8.33;2.00;;;;;;;;;;5066655;28;20074;-62
2023/08/20 03:54:17;;;;;;;7.97;3.93;;;;;;;;;;5067065;28;20544;-62
2023/08/20 03:56:43;;;;;;;12.90;2.90;;;;;;;;;;5068972;28;20036;-63
2023/08/20 03:59:11;;;;;;;23.30;3.40;;;;;;;;;;5055938;28;20074;-62
2023/08/20 04:01:38;;;;;;;11.03;3.10;;;;;;;;;;5072235;28;20025;-62
2023/08/20 04:04:05;;;;;;;9.67;2.43;;;;;;;;;;5072403;28;20032;-62
2023/08/20 04:06:32;;;;;;;5.60;2.37;;;;;;;;;;5071858;28;20479;-62
2023/08/20 04:08:58;;;;;;;11.07;3.23;;;;;;;;;;5069405;28;20029;-62
2023/08/20 04:11:25;;;;;;;17.57;3.27;;;;;;;;;;5066757;28;20037;-62
2023/08/20 04:13:52;;;;;;;8.50;3.03;;;;;;;;;;5066662;28;20071;-62
2023/08/20 04:16:19;;;;;;;7.47;3.50;;;;;;;;;;5066822;28;20122;-62
2023/08/20 04:18:45;;;;;;;14.67;3.43;;;;;;;;;;5068393;28;20021;-62
2023/08/20 04:21:12;;;;;;;9.70;3.67;;;;;;;;;;5071950;28;20534;-62
2023/08/20 04:23:39;;;;;;;12.30;3.93;;;;;;;;;;5071705;28;20021;-62
2023/08/20 04:26:06;;;;;;;25.50;3.90;;;;;;;;;;5071979;28;20032;-62
2023/08/20 04:28:33;;;;;;;13.93;3.33;;;;;;;;;;5072210;28;20463;-62
2023/08/20 04:31:00;;;;;;;10.13;4.10;;;;;;;;;;5071406;28;20023;-61
2023/08/20 04:33:27;;;;;;;16.63;4.13;;;;;;;;;;5070378;28;20074;-62
2023/08/20 04:35:54;;;;;;;9.10;2.80;;;;;;;;;;5070625;28;20012;-62
2023/08/20 04:38:21;;;;;;;6.27;2.70;;;;;;;;;;5070178;28;20863;-61
2023/08/20 04:40:48;;;;;;;21.63;3.50;;;;;;;;;;5071739;28;20032;-62
2023/08/20 04:43:15;;;;;;;19.90;2.93;;;;;;;;;;5075717;28;20036;-62
2023/08/20 04:45:42;;;;;;;35.60;3.37;;;;;;;;;;5075836;28;20067;-62
2023/08/20 04:48:09;;;;;;;20.27;4.27;;;;;;;;;;5076079;28;20024;-62
2023/08/20 04:50:36;;;;;;;12.40;3.30;;;;;;;;;;5075647;28;20032;-62
2023/08/20 04:53:03;;;;;;;13.00;3.10;;;;;;;;;;5074346;28;20029;-62
2023/08/20 04:55:30;;;;;;;19.43;3.70;;;;;;;;;;5069743;28;20032;-63
2023/08/20 04:57:58;;;;;;;5.83;2.47;;;;;;;;;;5069914;28;20029;-62
2023/08/20 05:00:25;;;;;;;17.20;2.37;;;;;;;;;;5069788;28;20020;-62
2023/08/20 05:02:52;;;;;;;11.77;2.83;;;;;;;;;;5070796;28;20032;-62
2023/08/20 05:05:19;;;;;;;13.43;2.50;;;;;;;;;;5075601;28;20024;-62
2023/08/20 05:07:46;;;;;;;8.90;2.53;;;;;;;;;;5075549;28;20105;-62
2023/08/20 05:10:12;;;;;;;10.20;3.17;;;;;;;;;;5074930;28;20032;-61
2023/08/20 05:12:39;;;;;;;11.07;3.43;;;;;;;;;;5075334;28;20036;-62
2023/08/20 05:15:07;;;;;;;12.87;3.33;;;;;;;;;;5074110;28;20047;-62
2023/08/20 05:17:33;;;;;;;10.00;3.40;;;;;;;;;;5069688;28;20040;-62
2023/08/20 05:20:00;;;;;;;7.10;2.73;;;;;;;;;;5069750;28;20469;-61
2023/08/20 05:22:27;;;;;;;31.53;4.03;;;;;;;;;;5069587;28;20036;-62
2023/08/20 05:24:54;;;;;;;8.30;3.20;;;;;;;;;;5070052;28;20032;-62
2023/08/20 05:27:20;;;;;;;30.23;3.53;;;;;;;;;;5075063;28;20020;-62
2023/08/20 05:29:47;;;;;;;4.27;2.27;;;;;;;;;;5075239;28;20025;-62
2023/08/20 05:32:16;;;;;;;7.40;3.13;;;;;;;;;;5074917;28;20024;-62
2023/08/20 05:34:43;;;;;;;34.10;3.00;;;;;;;;;;5074588;28;20530;-62
2023/08/20 05:37:09;;;;;;;10.00;3.53;;;;;;;;;;5074337;28;20479;-62
2023/08/20 05:39:43;;;;;;;6.43;2.90;;;;;;;;;;5069443;28;20105;-62
2023/08/20 05:42:10;;;;;;;6.23;2.60;;;;;;;;;;5069343;28;20037;-62
2023/08/20 05:44:37;;;;;;;10.93;3.20;;;;;;;;;;5069015;28;20028;-62
2023/08/20 05:47:05;;;;;;;12.87;4.10;;;;;;;;;;5069497;28;20039;-62
2023/08/20 05:49:32;;;;;;;14.17;3.40;;;;;;;;;;5074828;28;20151;-62
2023/08/20 05:51:58;;;;;;;10.03;2.70;;;;;;;;;;5073980;28;20053;-62
2023/08/20 05:54:25;;;;;;;11.57;3.20;;;;;;;;;;5074642;28;20067;-62
2023/08/20 05:56:52;;;;;;;12.80;3.17;;;;;;;;;;5074271;28;20020;-61
2023/08/20 05:59:19;;;;;;;12.33;3.20;;;;;;;;;;5074179;28;20052;-61
2023/08/20 06:01:46;;;;;;;10.50;2.90;;;;;;;;;;5069156;28;20479;-61
2023/08/20 06:04:12;;;;;;;19.43;3.80;;;;;;;;;;5069248;28;20017;-62
2023/08/20 06:06:40;;;;;;;9.90;3.17;;;;;;;;;;5068959;28;20068;-61
2023/08/20 06:09:07;;;;;;;8.30;2.40;;;;;;;;;;5068651;28;20051;-62
2023/08/20 06:11:33;;;;;;;12.97;3.70;;;;;;;;;;5073903;28;20036;-62
2023/08/20 06:14:00;;;;;;;7.97;2.77;;;;;;;;;;5074468;28;20100;-62
2023/08/20 06:16:27;;;;;;;5.87;3.00;;;;;;;;;;5073614;28;20360;-62
2023/08/20 06:18:54;;;;;;;19.27;2.97;;;;;;;;;;5074313;28;20024;-62
2023/08/20 06:21:21;;;;;;;12.93;3.90;;;;;;;;;;5074088;28;20017;-61
2023/08/20 06:23:47;;;;;;;16.47;4.00;;;;;;;;;;5068522;28;20024;-62
2023/08/20 06:26:14;;;;;;;9.80;2.67;;;;;;;;;;5068578;28;20479;-62
2023/08/20 06:28:41;;;;;;;13.53;2.87;;;;;;;;;;5067927;28;20111;-61
2023/08/20 06:31:08;;;;;;;6.57;2.27;;;;;;;;;;5068486;28;20124;-61
2023/08/20 06:33:35;;;;;;;13.97;3.00;;;;;;;;;;5073603;28;20017;-61
2023/08/20 06:36:02;;;;;;;11.33;3.33;;;;;;;;;;5073912;28;20021;-61
2023/08/20 06:38:28;;;;;;;31.77;4.10;;;;;;;;;;5073941;28;20025;-61
2023/08/20 06:40:55;;;;;;;13.33;3.27;;;;;;;;;;5073345;28;20375;-61
2023/08/20 06:43:22;;;;;;;10.87;2.87;;;;;;;;;;5073323;28;20036;-61
2023/08/20 06:45:49;;;;;;;11.60;3.57;;;;;;;;;;5067845;28;20021;-62
2023/08/20 06:48:16;;;;;;;12.30;4.90;;;;;;;;;;5068159;28;20379;-62
2023/08/20 06:50:43;;;;;;;6.43;2.60;;;;;;;;;;5067859;28;20036;-61
2023/08/20 06:53:09;;;;;;;22.40;2.60;;;;;;;;;;5067507;28;20048;-61
2023/08/20 06:55:36;;;;;;;25.10;4.20;;;;;;;;;;5072725;28;20085;-61
2023/08/20 06:58:03;;;;;;;30.60;4.00;;;;;;;;;;5073365;28;20099;-61
2023/08/20 07:00:30;;;;;;;4.03;2.17;;;;;;;;;;5073095;28;20028;-62
2023/08/20 07:02:57;;;;;;;12.20;3.00;;;;;;;;;;5073129;28;20153;-61
2023/08/20 07:05:23;;;;;;;6.60;2.27;;;;;;;;;;5073297;28;20024;-61
2023/08/20 07:07:50;;;;;;;6.90;3.40;;;;;;;;;;5067953;28;20759;-61
2023/08/20 07:10:17;;;;;;;8.77;3.37;;;;;;;;;;5067639;28;20020;-62
2023/08/20 07:12:44;;;;;;;6.80;3.40;;;;;;;;;;5067546;28;20165;-61
2023/08/20 07:15:11;;;;;;;11.47;3.53;;;;;;;;;;5067161;28;20032;-61
2023/08/20 07:17:38;;;;;;;10.67;3.17;;;;;;;;;;5071488;28;20028;-61
2023/08/20 07:20:05;;;;;;;4.87;2.70;;;;;;;;;;5073100;28;20032;-61
2023/08/20 07:22:32;;;;;;;11.27;2.87;;;;;;;;;;5073132;28;20020;-61
2023/08/20 07:24:59;;;;;;;3.07;2.00;;;;;;;;;;5072726;28;20458;-61
2023/08/20 07:27:26;;;;;;;10.40;3.47;;;;;;;;;;5072996;28;20033;-61
2023/08/20 07:29:52;;;;;;;7.83;2.50;;;;;;;;;;5068262;28;20464;-61
2023/08/20 07:32:19;;;;;;;11.77;3.00;;;;;;;;;;5067162;28;20025;-62
2023/08/20 07:34:46;;;;;;;12.50;2.47;;;;;;;;;;5066977;28;20140;-61
2023/08/20 07:37:13;;;;;;;14.13;3.13;;;;;;;;;;5067128;28;20020;-61
2023/08/20 07:39:40;;;;;;;10.57;3.77;;;;;;;;;;5070788;28;20043;-61
2023/08/20 07:42:07;;;;;;;5.27;2.37;;;;;;;;;;5072214;28;20044;-61
2023/08/20 07:44:34;;;;;;;6.30;2.83;;;;;;;;;;5072540;28;20458;-61
2023/08/20 07:47:01;;;;;;;8.10;3.33;;;;;;;;;;5072165;28;20475;-61
2023/08/20 07:49:27;;;;;;;30.27;3.83;;;;;;;;;;5071934;28;20078;-62
2023/08/20 07:51:55;;;;;;;22.53;3.33;;;;;;;;;;5068459;28;20036;-61
2023/08/20 07:54:22;;;;;;;7.87;3.43;;;;;;;;;;5066538;28;20025;-61
2023/08/20 07:56:49;;;;;;;13.17;3.50;;;;;;;;;;5067043;28;20489;-61
2023/08/20 07:59:16;;;;;;;12.43;3.83;;;;;;;;;;5066970;28;20074;-62
2023/08/20 08:01:43;;;;;;;18.10;3.13;;;;;;;;;;5069812;28;20020;-62
2023/08/20 08:04:09;;;;;;;7.83;3.07;;;;;;;;;;5072127;28;20016;-61
2023/08/20 08:06:36;;;;;;;11.93;3.03;;;;;;;;;;5071491;28;20028;-62
2023/08/20 08:09:20;;;;;;;6.60;2.57;;;;;;;;;;5072209;28;20032;-61
2023/08/20 08:11:46;;;;;;;6.27;2.83;;;;;;;;;;5072344;28;20479;-62
2023/08/20 08:14:13;;;;;;;6.23;2.67;;;;;;;;;;5067778;28;20108;-62
2023/08/20 08:16:40;;;;;;;6.40;2.80;;;;;;;;;;5066185;28;20052;-62
2023/08/20 08:19:07;;;;;;;9.97;3.97;;;;;;;;;;5066719;28;20021;-62
2023/08/20 08:21:34;;;;;;;7.40;3.37;;;;;;;;;;5066641;28;20033;-61
2023/08/20 08:24:00;;;;;;;20.03;3.60;;;;;;;;;;5069802;28;20029;-61
2023/08/20 08:26:27;;;;;;;7.93;2.43;;;;;;;;;;5072261;28;20032;-61
2023/08/20 08:28:54;;;;;;;15.07;3.50;;;;;;;;;;5071418;28;20020;-61
2023/08/20 08:31:21;;;;;;;3.97;1.73;;;;;;;;;;5072133;28;20029;-61
2023/08/20 08:33:48;;;;;;;12.53;2.30;;;;;;;;;;5072194;28;20021;-61
2023/08/20 08:36:16;;;;;;;10.00;2.93;;;;;;;;;;5068308;28;20441;-62
2023/08/20 08:38:46;;;;;;;11.20;3.03;;;;;;;;;;5066380;28;20043;-62
2023/08/20 08:41:13;;;;;;;9.97;3.67;;;;;;;;;;5066342;28;20519;-61
2023/08/20 08:43:40;;;;;;;27.20;4.63;;;;;;;;;;5066045;28;20099;-62
2023/08/20 08:46:08;;;;;;;11.30;3.70;;;;;;;;;;5069614;28;20029;-62
2023/08/20 08:48:36;;;;;;;13.00;3.07;;;;;;;;;;5071977;28;20012;-61
2023/08/20 08:51:03;;;;;;;26.60;3.67;;;;;;;;;;5071401;28;20073;-61
2023/08/20 08:53:31;;;;;;;15.37;3.67;;;;;;;;;;5071905;28;20028;-61
2023/08/20 08:55:57;;;;;;;12.60;3.30;;;;;;;;;;5071814;28;20059;-61
2023/08/20 08:58:24;;;;;;;26.20;3.00;;;;;;;;;;5067668;28;20016;-61
2023/08/20 09:00:51;;;;;;;14.70;4.00;;;;;;;;;;5066316;28;20044;-61
2023/08/20 09:03:18;;;;;;;7.63;2.40;;;;;;;;;;5065870;28;20036;-62
2023/08/20 09:05:55;;;;;;;8.33;2.90;;;;;;;;;;5066224;28;20479;-61
2023/08/20 09:08:31;;;;;;;11.13;3.47;;;;;;;;;;5069587;28;20079;-61
2023/08/20 09:10:59;;;;;;;7.07;2.23;;;;;;;;;;5071098;28;20430;-61
2023/08/20 09:13:35;;;;;;;11.27;4.03;;;;;;;;;;5071308;28;20032;-61
2023/08/20 09:16:04;;;;;;;12.20;3.00;;;;;;;;;;5071567;28;20082;-61
2023/08/20 09:18:31;;;;;;;5.27;2.33;;;;;;;;;;5075137;28;20517;-61
2023/08/20 09:20:59;;;;;;;11.47;3.57;;;;;;;;;;5070637;28;20516;-60
2023/08/20 09:23:27;;;;;;;5.97;2.50;;;;;;;;;;5068917;28;20027;-61
2023/08/20 09:25:54;;;;;;;7.17;2.77;;;;;;;;;;5069682;28;20723;-61
2023/08/20 09:28:21;;;;;;;9.80;3.00;;;;;;;;;;5069903;28;20020;-62
2023/08/20 09:31:01;;;;;;;13.90;2.37;;;;;;;;;;5073563;28;20078;-61
2023/08/20 09:33:28;;;;;;;4.10;2.20;;;;;;;;;;5074714;28;20087;-61
2023/08/20 09:35:55;;;;;;;27.73;3.03;;;;;;;;;;5074754;28;20032;-61
2023/08/20 09:38:22;;;;;;;15.17;3.27;;;;;;;;;;5075040;28;20104;-61
2023/08/20 09:40:50;;;;;;;18.07;2.50;;;;;;;;;;5074980;28;20017;-61
2023/08/20 09:43:20;;;;;;;6.50;2.57;;;;;;;;;;5069465;28;20386;-61
2023/08/20 09:45:48;;;;;;;3.63;2.07;;;;;;;;;;5069540;28;20036;-62
2023/08/20 09:48:20;;;;;;;5.63;1.93;;;;;;;;;;5069333;28;20021;-61
2023/08/20 09:50:50;;;;;;;7.57;2.53;;;;;;;;;;5069203;28;20123;-61
2023/08/20 09:53:17;;;;;;;4.73;2.30;;;;;;;;;;5073650;28;20029;-61
2023/08/20 09:55:44;;;;;;;11.00;2.60;;;;;;;;;;5074827;28;20086;-61
2023/08/20 09:58:11;;;;;;;11.40;2.83;;;;;;;;;;5074606;28;20035;-61
2023/08/20 10:00:39;;;;;;;10.97;2.40;;;;;;;;;;5074671;28;20124;-61
2023/08/20 10:03:06;;;;;;;8.43;2.50;;;;;;;;;;5074260;28;20028;-61
2023/08/20 10:05:33;;;;;;;12.60;3.07;;;;;;;;;;5068920;28;20376;-61
2023/08/20 10:08:02;;;;;;;3.10;1.73;;;;;;;;;;5069126;28;20032;-61
2023/08/20 10:10:29;;;;;;;7.67;3.23;;;;;;;;;;5068905;28;20059;-61
2023/08/20 10:12:57;;;;;;;5.33;2.43;;;;;;;;;;5068862;28;20067;-61
2023/08/20 10:15:26;;;;;;;7.13;2.20;;;;;;;;;;5073522;28;20046;-61
2023/08/20 10:17:53;;;;;;;12.93;2.83;;;;;;;;;;5073570;28;20024;-61
2023/08/20 10:20:20;;;;;;;16.83;2.97;;;;;;;;;;5074304;28;20028;-61
2023/08/20 10:22:47;;;;;;;5.43;1.87;;;;;;;;;;5074097;28;20028;-61
2023/08/20 10:25:23;;;;;;;17.63;2.57;;;;;;;;;;5074248;28;20035;-62
2023/08/20 10:27:50;;;;;;;12.73;2.53;;;;;;;;;;5067905;28;20036;-61
2023/08/20 10:30:21;;;;;;;20.03;3.37;;;;;;;;;;5067628;28;20043;-61
2023/08/20 10:33:09;;;;;;;5.23;2.27;;;;;;;;;;5068430;28;20058;-61
2023/08/20 10:35:55;;;;;;;14.23;3.50;;;;;;;;;;5068529;28;20032;-61
2023/08/20 10:38:23;;;;;;;5.47;2.17;;;;;;;;;;5074034;28;20024;-61
2023/08/20 10:40:50;;;;;;;12.40;3.23;;;;;;;;;;5073690;28;20085;-61
2023/08/20 10:43:35;;;;;;;7.77;2.30;;;;;;;;;;5073425;28;20037;-61
2023/08/20 10:46:08;;;;;;;14.88;2.83;;;;;;;;;;5073784;28;20020;-61
2023/08/20 10:48:35;;;;;;;3.97;1.73;;;;;;;;;;5071549;28;20103;-61
2023/08/20 10:51:11;;;;;;;6.87;2.30;;;;;;;;;;5068193;28;20498;-61
2023/08/20 10:53:38;;;;;;;13.13;2.50;;;;;;;;;;5068064;28;20118;-61
2023/08/20 10:56:23;;;;;;;7.67;3.03;;;;;;;;;;5067708;28;20024;-61
2023/08/20 10:58:50;;;;;;;4.43;2.20;;;;;;;;;;5070558;28;20021;-61
2023/08/20 11:01:21;;;;;;;33.73;3.23;;;;;;;;;;5073542;28;20650;-61
2023/08/20 11:03:49;;;;;;;17.90;3.07;;;;;;;;;;5073416;28;20100;-61
2023/08/20 11:06:16;;;;;;;5.37;2.40;;;;;;;;;;5072946;28;20017;-61
2023/08/20 11:08:43;;;;;;;15.63;3.57;;;;;;;;;;5072467;28;20056;-61
2023/08/20 11:11:10;;;;;;;10.60;3.30;;;;;;;;;;5069143;28;20348;-61
2023/08/20 11:13:37;;;;;;;6.90;2.43;;;;;;;;;;5067685;28;20037;-61
2023/08/20 11:16:04;;;;;;;14.67;2.83;;;;;;;;;;5067640;28;20390;-61
2023/08/20 11:18:34;;;;;;;20.83;3.83;;;;;;;;;;5067321;28;20376;-61
2023/08/20 11:21:01;;;;;;;4.13;2.13;;;;;;;;;;5070169;28;20032;-61
2023/08/20 11:23:29;;;;;;;7.17;3.03;;;;;;;;;;5073023;28;20056;-62
2023/08/20 11:25:56;;;;;;;22.40;2.40;;;;;;;;;;5072678;28;20100;-61
2023/08/20 11:28:24;;;;;;;6.40;2.43;;;;;;;;;;5072959;28;20631;-61
2023/08/20 11:30:50;;;;;;;10.83;2.93;;;;;;;;;;5072312;28;20070;-61
2023/08/20 11:33:17;;;;;;;11.33;2.57;;;;;;;;;;5069604;28;20029;-61
2023/08/20 11:35:45;;;;;;;12.30;3.13;;;;;;;;;;5067471;28;20368;-61
2023/08/20 11:38:12;;;;;;;11.10;3.33;;;;;;;;;;5067144;28;20099;-61
2023/08/20 11:40:38;;;;;;;12.73;3.77;;;;;;;;;;5066782;28;20041;-62
2023/08/20 11:43:06;;;;;;;6.80;2.67;;;;;;;;;;5069426;28;20032;-61
2023/08/20 11:45:33;;;;;;;26.37;2.67;;;;;;;;;;5072632;28;20032;-61
2023/08/20 11:48:00;;;;;;;10.63;3.10;;;;;;;;;;5072430;28;20471;-61
2023/08/20 11:50:27;;;;;;;3.10;2.03;;;;;;;;;;5072486;28;20107;-61
2023/08/20 11:52:54;;;;;;;29.47;3.40;;;;;;;;;;5072461;28;20029;-61
2023/08/20 11:55:25;;;;;;;14.83;3.33;;;;;;;;;;5069081;28;20035;-61
2023/08/20 11:57:52;;;;;;;8.77;2.73;;;;;;;;;;5066926;28;20660;-61
2023/08/20 12:00:29;;;;;;;15.60;3.70;;;;;;;;;;5066659;28;20028;-61
2023/08/20 12:02:56;;;;;;;7.87;2.63;;;;;;;;;;5066832;28;20025;-61
2023/08/20 12:05:27;;;;;;;34.23;3.83;;;;;;;;;;5069547;28;20115;-61
2023/08/20 12:08:01;;;;;;;10.77;3.03;;;;;;;;;;5071795;28;20020;-61
2023/08/20 12:10:29;;;;;;;7.43;2.95;;;;;;;;;;5072457;28;20017;-61
2023/08/20 12:12:56;;;;;;;13.80;4.60;;;;;;;;;;5072344;28;20060;-61
2023/08/20 12:15:23;;;;;;;25.93;4.10;;;;;;;;;;5072141;28;20068;-61
2023/08/20 12:18:08;;;;;;;3.17;1.80;;;;;;;;;;5068613;28;20024;-61
2023/08/20 12:20:35;;;;;;;6.20;2.77;;;;;;;;;;5066177;28;20036;-61
2023/08/20 12:23:04;;;;;;;2.20;1.60;;;;;;;;;;5066621;28;20025;-61
2023/08/20 12:25:32;;;;;;;15.23;3.70;;;;;;;;;;5066604;28;20383;-61
2023/08/20 12:27:58;;;;;;;11.03;2.93;;;;;;;;;;5070214;28;20025;-60
2023/08/20 12:30:25;;;;;;;11.53;3.47;;;;;;;;;;5071851;28;20093;-60
2023/08/20 12:32:52;;;;;;;7.87;2.60;;;;;;;;;;5071313;28;20115;-61
2023/08/20 12:35:19;;;;;;;19.83;2.77;;;;;;;;;;5072059;28;20398;-61
2023/08/20 12:37:46;;;;;;;11.03;3.10;;;;;;;;;;5072181;28;20028;-61
2023/08/20 12:40:13;;;;;;;17.83;3.47;;;;;;;;;;5067831;28;20029;-61
2023/08/20 12:42:40;;;;;;;10.03;4.17;;;;;;;;;;5066351;28;20035;-61
2023/08/20 12:45:07;;;;;;;22.70;3.90;;;;;;;;;;5065753;28;20025;-61
2023/08/20 12:47:35;;;;;;;14.03;2.63;;;;;;;;;;5066414;28;20103;-61
2023/08/20 12:50:04;;;;;;;19.57;3.20;;;;;;;;;;5069754;28;20029;-61
2023/08/20 12:52:31;;;;;;;7.30;2.63;;;;;;;;;;5074208;28;20043;-61
2023/08/20 12:54:58;;;;;;;8.93;2.57;;;;;;;;;;5075854;28;20024;-61
2023/08/20 12:57:24;;;;;;;6.23;2.83;;;;;;;;;;5075383;28;20472;-61
2023/08/20 12:59:51;;;;;;;6.53;2.20;;;;;;;;;;5075288;28;20277;-61
2023/08/20 13:02:19;;;;;;;6.37;2.80;;;;;;;;;;5071857;28;20048;-61
2023/08/20 13:04:46;;;;;;;13.67;3.40;;;;;;;;;;5070245;28;20033;-61
2023/08/20 13:07:13;;;;;;;18.03;4.37;;;;;;;;;;5070113;28;20086;-61
2023/08/20 13:09:40;;;;;;;6.80;2.60;;;;;;;;;;5069862;28;20028;-61
2023/08/20 13:12:11;;;;;;;9.17;2.73;;;;;;;;;;5055219;28;20036;-61
2023/08/20 13:14:40;;;;;;;11.07;2.70;;;;;;;;;;5074955;28;20020;-61
2023/08/20 13:17:07;;;;;;;7.07;2.87;;;;;;;;;;5075289;28;20036;-61
2023/08/20 13:19:34;;;;;;;9.37;2.90;;;;;;;;;;5075571;28;20029;-61
2023/08/20 13:22:01;;;;;;;9.60;2.60;;;;;;;;;;5075178;28;20033;-62
2023/08/20 13:24:27;;;;;;;7.00;2.40;;;;;;;;;;5071357;28;20036;-61
2023/08/20 13:26:54;;;;;;;10.07;3.47;;;;;;;;;;5069882;28;20025;-61
2023/08/20 13:29:21;;;;;;;32.60;3.33;;;;;;;;;;5069141;28;20024;-61
2023/08/20 13:31:48;;;;;;;8.87;2.53;;;;;;;;;;5069370;28;20040;-61
2023/08/20 13:34:15;;;;;;;5.80;3.10;;;;;;;;;;5072843;28;20071;-61
2023/08/20 13:36:42;;;;;;;9.63;2.83;;;;;;;;;;5075225;28;20417;-61
2023/08/20 13:39:08;;;;;;;8.93;3.80;;;;;;;;;;5074724;28;20360;-61
2023/08/20 13:41:35;;;;;;;12.93;4.10;;;;;;;;;;5074903;28;20023;-61
2023/08/20 13:44:02;;;;;;;8.73;3.17;;;;;;;;;;5074558;28;20384;-61
2023/08/20 13:46:29;;;;;;;16.57;3.27;;;;;;;;;;5071271;28;20538;-61
2023/08/20 13:48:56;;;;;;;16.10;4.20;;;;;;;;;;5069380;28;20194;-61
2023/08/20 13:51:23;;;;;;;6.97;2.83;;;;;;;;;;5068835;28;20126;-61
2023/08/20 13:53:50;;;;;;;14.63;3.47;;;;;;;;;;5068747;28;20036;-62
2023/08/20 13:56:16;;;;;;;15.57;2.93;;;;;;;;;;5072107;28;20075;-62
2023/08/20 13:58:43;;;;;;;15.53;2.80;;;;;;;;;;5074664;28;20025;-62
2023/08/20 14:01:12;;;;;;;8.33;2.90;;;;;;;;;;5074635;28;20013;-61
2023/08/20 14:03:39;;;;;;;10.37;2.47;;;;;;;;;;5072855;28;20131;-61
2023/08/20 14:06:06;;;;;;;22.30;3.43;;;;;;;;;;5074231;28;20025;-61
2023/08/20 14:08:33;;;;;;;9.83;3.03;;;;;;;;;;5071132;28;20407;-62
2023/08/20 14:11:00;;;;;;;9.47;2.83;;;;;;;;;;5068810;28;20024;-61
2023/08/20 14:13:27;;;;;;;12.57;3.40;;;;;;;;;;5068791;28;20036;-61
2023/08/20 14:15:53;;;;;;;8.90;3.03;;;;;;;;;;5068391;28;20032;-61
2023/08/20 14:18:20;;;;;;;16.80;3.77;;;;;;;;;;5071730;28;20039;-62
2023/08/20 14:20:47;;;;;;;7.20;3.47;;;;;;;;;;5074168;28;20108;-62
2023/08/20 14:23:14;;;;;;;8.30;4.00;;;;;;;;;;5074222;28;20535;-61
2023/08/20 14:25:41;;;;;;;8.80;3.73;;;;;;;;;;5074144;28;20028;-62
2023/08/20 14:28:08;;;;;;;15.50;4.23;;;;;;;;;;5073901;28;20032;-62
2023/08/20 14:30:39;;;;;;;7.23;3.20;;;;;;;;;;5070773;28;20107;-61
2023/08/20 14:33:06;;;;;;;9.47;3.40;;;;;;;;;;5068558;28;20614;-61
2023/08/20 14:35:33;;;;;;;17.60;3.97;;;;;;;;;;5068564;28;20020;-62
2023/08/20 14:38:00;;;;;;;9.57;3.30;;;;;;;;;;5068332;28;20021;-61